Terminal Aerodrome Forecast
Issued by NWS

Home | Current Version | Previous Version | Text Only | Print | Product List | Glossary On
Versions: 1 2 3 4 5 6 7 8 9 10 11 12 13 14 15
000
FTUS43 KFGF 212338
TAFTVF
TAF
KTVF 212338Z 2200/2224 12005KT P6SM BKN100
     FM220300 11009KT P6SM BKN130
     FM220500 13006KT P6SM VCTS BKN100CB
     FM220900 15004KT P6SM SCT110
     FM221200 21004KT P6SM SCT110
     FM221400 27008KT P6SM SCT120
     FM221600 30011KT P6SM SCT140=

USA.gov is the U.S. government's official web portal to all federal, state and local government web resources and services.